createdAt,value
2017-05-25T00:00:03.239Z,70.26
2017-05-25T00:05:03.142Z,69.49
2017-05-25T00:10:02.816Z,68.92
2017-05-25T00:15:03.528Z,68.35
2017-05-25T00:20:03.332Z,67.3
2017-05-25T00:25:03.011Z,67.01
2017-05-25T00:30:03.652Z,66.53
2017-05-25T00:35:03.343Z,65.96
2017-05-25T00:40:02.932Z,65.17
2017-05-25T00:45:03.583Z,64.69
2017-05-25T00:50:03.175Z,64.4
2017-05-25T00:55:02.860Z,64.02
2017-05-25T01:00:03.564Z,63.35
2017-05-25T01:05:03.332Z,62.88
2017-05-25T01:10:03.051Z,62.49
2017-05-25T01:15:03.625Z,62.02
2017-05-25T01:20:03.357Z,61.63
2017-05-25T01:25:03.038Z,60.84
2017-05-25T01:30:02.718Z,60.27
2017-05-25T01:35:03.289Z,59.79
2017-05-25T01:40:03.112Z,59.22
2017-05-25T01:45:02.911Z,58.75
2017-05-25T01:50:03.543Z,58.07
2017-05-25T01:55:03.304Z,57.89
2017-05-25T02:00:02.973Z,57.22
2017-05-25T02:05:02.741Z,56.65
2017-05-25T02:10:03.655Z,56.36
2017-05-25T02:15:03.180Z,56.07
2017-05-25T02:20:02.918Z,55.88
2017-05-25T02:25:03.668Z,55.69
2017-05-25T02:30:03.362Z,55.31
2017-05-25T02:35:03.063Z,55.12
2017-05-25T02:40:02.837Z,55.31
2017-05-25T02:45:03.370Z,55.21
2017-05-25T02:50:02.915Z,55.88
2017-05-25T02:55:02.733Z,56.07
2017-05-25T03:00:03.555Z,56.07
2017-05-25T03:05:03.239Z,56.36
2017-05-25T03:10:02.926Z,56.55
2017-05-25T03:15:03.514Z,57.22
2017-05-25T03:20:03.304Z,57.79
2017-05-25T03:25:02.954Z,57.98
2017-05-25T03:30:03.679Z,57.7
2017-05-25T03:35:03.458Z,57.79
2017-05-25T03:40:03.285Z,57.89
2017-05-25T03:45:03.038Z,57.89
2017-05-25T03:50:02.807Z,57.98
2017-05-25T03:55:03.546Z,57.98
2017-05-25T04:00:03.349Z,58.55
2017-05-25T04:05:03.124Z,59.03
2017-05-25T04:10:02.975Z,59.79
2017-05-25T04:15:02.756Z,59.79
2017-05-25T04:20:03.334Z,60.46
2017-05-25T04:25:02.973Z,60.84
2017-05-25T04:30:03.188Z,61.22
2017-05-25T04:35:02.780Z,61.6
2017-05-25T04:40:03.575Z,61.7
2017-05-25T04:45:03.130Z,61.6
2017-05-25T04:50:02.779Z,61.99
2017-05-25T04:55:03.518Z,61.89
2017-05-25T05:00:03.157Z,62.37
2017-05-25T05:05:03.687Z,62.84
2017-05-25T05:10:03.361Z,63.51
2017-05-25T05:15:03.100Z,64.21
2017-05-25T05:20:02.907Z,66.02
2017-05-25T05:25:03.596Z,66.88
2017-05-25T05:30:03.164Z,67.83
2017-05-25T05:35:02.875Z,68.7
2017-05-25T05:40:03.526Z,69.68
2017-05-25T05:45:03.201Z,70.83
2017-05-25T05:50:02.773Z,72.39
2017-05-25T05:55:03.385Z,73.44
2017-05-25T06:00:03.017Z,75.96
2017-05-25T06:05:02.902Z,81.55
2017-05-25T06:10:03.593Z,83.31
2017-05-25T06:15:03.316Z,84.46
2017-05-25T06:20:03.126Z,85.8
2017-05-25T06:25:02.833Z,88.13
2017-05-25T06:30:03.599Z,89.62
2017-05-25T06:35:03.260Z,92.82
2017-05-25T06:40:02.954Z,93.49
2017-05-25T06:45:03.742Z,95.03
2017-05-25T06:50:03.348Z,98.14
2017-05-25T06:55:03.061Z,99.99
2017-05-25T07:00:02.881Z,99.99
2017-05-25T07:05:03.528Z,99.99
2017-05-25T07:10:03.430Z,99.99
2017-05-25T07:15:03.094Z,99.99
2017-05-25T07:20:02.746Z,99.99
2017-05-25T07:25:03.313Z,99.99
2017-05-25T07:30:03.067Z,99.99
2017-05-25T07:35:02.831Z,99.99
2017-05-25T07:40:03.594Z,99.99
2017-05-25T07:45:03.230Z,99.99
2017-05-25T07:50:02.773Z,99.99
2017-05-25T07:55:03.384Z,95.54
2017-05-25T08:00:03.024Z,93.37
2017-05-25T08:05:03.679Z,90.42
2017-05-25T08:10:03.368Z,88.34
2017-05-25T08:15:03.010Z,85.29
2017-05-25T08:20:03.694Z,82.14
2017-05-25T08:25:03.282Z,80.88
2017-05-25T08:30:02.891Z,79.04
2017-05-25T08:35:03.543Z,78.59
2017-05-25T08:40:03.293Z,75.96
2017-05-25T08:45:03.093Z,74.64
2017-05-25T08:50:02.831Z,73.52
2017-05-25T08:55:03.464Z,72.35
2017-05-25T09:00:03.188Z,69.67
2017-05-25T09:05:02.846Z,70
2017-05-25T09:10:03.571Z,67.99
2017-05-25T09:15:03.242Z,68.83
2017-05-25T09:20:02.996Z,67.08
2017-05-25T09:25:03.711Z,66.69
2017-05-25T09:30:03.301Z,64.85
2017-05-25T09:35:02.907Z,65.23
2017-05-25T09:40:03.651Z,64.04
2017-05-25T09:45:03.288Z,63.29
2017-05-25T09:50:02.887Z,62.02
2017-05-25T09:55:03.683Z,61.89
2017-05-25T10:00:03.269Z,60.39
2017-05-25T10:05:02.932Z,59.55
2017-05-25T10:10:02.749Z,58.97
2017-05-25T10:15:03.393Z,58.99
2017-05-25T10:20:03.118Z,58.73
2017-05-25T10:25:02.786Z,57.23
2017-05-25T10:30:03.456Z,56.86
2017-05-25T10:35:03.261Z,56.18
2017-05-25T10:40:02.889Z,56.4
2017-05-25T10:45:03.736Z,55.13
2017-05-25T10:50:03.510Z,54.83
2017-05-25T10:55:03.209Z,54.74
2017-05-25T11:00:02.987Z,54.77
2017-05-25T11:05:03.626Z,54.28
2017-05-25T11:10:03.256Z,54.08
2017-05-25T11:15:02.983Z,53.47
2017-05-25T11:20:03.704Z,53.76
2017-05-25T11:25:03.353Z,54.17
2017-05-25T11:30:03.268Z,53.69
2017-05-25T11:35:02.933Z,53.78
2017-05-25T11:40:03.514Z,53.78
2017-05-25T11:45:03.282Z,52.91
2017-05-25T11:50:03.037Z,52.98
2017-05-25T11:55:03.663Z,54.21
2017-05-25T12:00:03.626Z,53.03
2017-05-25T12:05:03.452Z,52.79
2017-05-25T12:10:03.261Z,51.66
2017-05-25T12:15:03.167Z,52.73
2017-05-25T12:20:02.937Z,51.39
2017-05-25T12:25:02.878Z,52.03
2017-05-25T12:30:03.690Z,52
2017-05-25T12:35:03.652Z,53.3
2017-05-25T12:40:02.732Z,53.42
2017-05-25T12:45:03.667Z,51.78
2017-05-25T12:50:03.160Z,52.34
2017-05-25T12:55:03.663Z,52.98
2017-05-25T13:00:03.256Z,53.08
2017-05-25T13:05:03.299Z,52.44
2017-05-25T13:10:03.107Z,52.15
2017-05-25T13:15:03.685Z,52.34
2017-05-25T13:20:03.208Z,51.76
2017-05-25T13:25:03.547Z,53.15
2017-05-25T13:30:03.155Z,53.08
2017-05-25T13:35:03.326Z,53.3
2017-05-25T13:40:03.572Z,52.81
2017-05-25T13:45:02.734Z,52.69
2017-05-25T13:50:02.917Z,52.91
2017-05-25T13:55:02.807Z,52.49
2017-05-25T14:00:02.819Z,53.64
2017-05-25T14:05:03.584Z,54.13
2017-05-25T14:10:03.503Z,54.05
2017-05-25T14:15:03.407Z,53.34
2017-05-25T14:20:03.456Z,54.05
2017-05-25T14:25:03.251Z,54.1
2017-05-25T14:30:03.306Z,54.46
2017-05-25T14:35:03.159Z,55.02
2017-05-25T14:40:03.098Z,55.77
2017-05-25T14:45:02.753Z,56.36
2017-05-25T14:50:03.389Z,56.72
2017-05-25T14:55:03.122Z,57.34
2017-05-25T15:00:02.937Z,56.85
2017-05-25T15:05:02.751Z,56.85
2017-05-25T15:10:03.652Z,57.21
2017-05-25T15:15:03.300Z,58.22
2017-05-25T15:20:02.867Z,58.35
2017-05-25T15:25:03.650Z,58.97
2017-05-25T15:30:03.373Z,59.56
2017-05-25T15:35:03.245Z,60.28
2017-05-25T15:40:03.202Z,61.18
2017-05-25T15:45:02.897Z,60.99
2017-05-25T15:50:03.644Z,60.72
2017-05-25T15:55:03.465Z,60.14
2017-05-25T16:00:03.184Z,60.44
2017-05-25T16:05:03.001Z,59.75
2017-05-25T16:10:02.902Z,60.14
2017-05-25T16:15:03.450Z,60.67
2017-05-25T16:20:03.022Z,61.32
2017-05-25T16:25:02.807Z,62.07
2017-05-25T16:30:03.480Z,63.26
2017-05-25T16:35:03.217Z,64.27
2017-05-25T16:40:02.941Z,65.14
2017-05-25T16:45:02.775Z,65.43
2017-05-25T16:50:03.508Z,66.17
2017-05-25T16:55:03.454Z,66.56
2017-05-25T17:00:03.417Z,66.02
2017-05-25T17:05:03.057Z,66.3
2017-05-25T17:10:02.840Z,66.2
2017-05-25T17:15:03.415Z,66.02
2017-05-25T17:20:03.167Z,66.2
2017-05-25T17:25:02.945Z,66.3
2017-05-25T17:30:03.594Z,66.47
2017-05-25T17:35:03.178Z,66.85
2017-05-25T17:40:03.021Z,67.34
2017-05-25T17:45:03.642Z,67.79
2017-05-25T17:50:03.328Z,68.27
2017-05-25T17:55:02.894Z,68.53
2017-05-25T18:00:03.511Z,69.27
2017-05-25T18:05:03.314Z,69.75
2017-05-25T18:10:03.153Z,69.95
2017-05-25T18:15:02.994Z,70.2
2017-05-25T18:20:02.768Z,70.59
2017-05-25T18:25:03.488Z,71.46
2017-05-25T18:30:03.203Z,72
2017-05-25T18:35:02.781Z,72.39
2017-05-25T18:40:03.614Z,73.07
2017-05-25T18:45:03.404Z,73.52
2017-05-25T18:50:03.032Z,74.38
2017-05-25T18:55:02.757Z,74.93
2017-05-25T19:00:03.393Z,75.6
2017-05-25T19:05:03.045Z,76.63
2017-05-25T19:10:02.909Z,77.5
2017-05-25T19:15:02.776Z,79
2017-05-25T19:20:03.450Z,80.06
2017-05-25T19:25:03.246Z,81.51
2017-05-25T19:30:02.998Z,82.92
2017-05-25T19:35:03.695Z,85.42
2017-05-25T19:40:03.457Z,87.21
2017-05-25T19:45:03.067Z,89.43
2017-05-25T19:50:02.707Z,91.64
2017-05-25T19:55:03.465Z,93.91
2017-05-25T20:00:03.146Z,97.28
2017-05-25T20:05:02.773Z,99.26
2017-05-25T20:10:03.380Z,99.99
2017-05-25T20:15:03.297Z,99.99
2017-05-25T20:20:03.088Z,99.99
2017-05-25T20:25:02.726Z,99.99
2017-05-25T20:30:03.537Z,99.99
2017-05-25T20:35:03.211Z,99.99
2017-05-25T20:40:02.862Z,99.99
2017-05-25T20:45:03.535Z,99.99
2017-05-25T20:50:03.232Z,99.99
2017-05-25T20:55:02.976Z,99.99
2017-05-25T21:00:03.617Z,99.99
2017-05-25T21:05:03.231Z,99.99
2017-05-25T21:10:03.114Z,99.99
2017-05-25T21:15:02.873Z,99.99
2017-05-25T21:20:03.685Z,99.99
2017-05-25T21:25:03.457Z,99.99
2017-05-25T21:30:03.419Z,99.99
2017-05-25T21:35:03.270Z,99.99
2017-05-25T21:40:02.978Z,99.99
2017-05-25T21:45:03.603Z,99.73
2017-05-25T21:50:03.228Z,99.44
2017-05-25T21:55:02.818Z,99.15
2017-05-25T22:00:03.409Z,98.96
2017-05-25T22:05:03.148Z,98.62
2017-05-25T22:10:02.846Z,98.43
2017-05-25T22:15:03.601Z,98.14
2017-05-25T22:20:10.359Z,97.86
2017-05-25T22:25:03.072Z,97.38
2017-05-25T22:30:02.918Z,97.14
2017-05-25T22:35:03.544Z,96.85
2017-05-25T22:40:03.372Z,96.66
2017-05-25T22:45:03.138Z,96.47
2017-05-25T22:50:02.816Z,95.98
2017-05-25T22:55:03.471Z,95.65
2017-05-25T23:00:03.045Z,95.36
2017-05-25T23:05:03.152Z,95.07
2017-05-25T23:10:02.998Z,94.69
2017-05-25T23:15:02.750Z,94.4
2017-05-25T23:20:03.404Z,94.07
2017-05-25T23:25:03.307Z,93.59
2017-05-25T23:30:02.951Z,93.3
2017-05-25T23:35:03.604Z,92.73
2017-05-25T23:40:03.382Z,92.35
2017-05-25T23:45:03.177Z,91.86
2017-05-25T23:50:02.862Z,91.44
2017-05-25T23:55:03.631Z,90.96
